createdAt,value
2023-02-17T00:00:13.642Z,1.40
2023-02-17T00:02:45.118Z,1.23
2023-02-17T00:05:13.852Z,1.23
2023-02-17T00:07:42.311Z,1.08
2023-02-17T00:10:18.626Z,1.27
2023-02-17T00:12:51.938Z,0.90
2023-02-17T00:15:22.415Z,0.95
2023-02-17T00:17:51.086Z,1.40
2023-02-17T00:20:21.188Z,1.10
2023-02-17T00:22:49.588Z,1.20
2023-02-17T00:25:20.301Z,1.00
2023-02-17T00:27:51.500Z,1.33
2023-02-17T00:30:22.326Z,0.90
2023-02-17T00:32:51.783Z,1.30
2023-02-17T00:35:20.568Z,0.88
2023-02-17T00:37:48.944Z,0.80
2023-02-17T00:40:19.764Z,1.40
2023-02-17T00:42:50.634Z,1.23
2023-02-17T00:45:19.877Z,1.10
2023-02-17T00:47:48.278Z,1.30
2023-02-17T00:50:17.124Z,0.80
2023-02-17T00:52:46.601Z,0.90
2023-02-17T00:55:16.197Z,1.02
2023-02-17T00:57:44.673Z,1.00
2023-02-17T01:00:16.565Z,0.88
2023-02-17T01:02:44.829Z,0.93
2023-02-17T01:05:15.624Z,1.23
2023-02-17T01:07:46.373Z,0.93
2023-02-17T01:10:15.388Z,0.93
2023-02-17T01:12:44.018Z,1.00
2023-02-17T01:15:15.145Z,1.00
2023-02-17T01:17:44.761Z,1.00
2023-02-17T01:20:13.742Z,0.95
2023-02-17T01:22:42.457Z,1.08
2023-02-17T01:25:13.087Z,1.20
2023-02-17T01:27:41.712Z,0.95
2023-02-17T01:30:12.583Z,0.80
2023-02-17T01:32:43.553Z,0.90
2023-02-17T01:35:12.617Z,0.98
2023-02-17T01:37:42.508Z,0.88
2023-02-17T01:40:14.578Z,0.50
2023-02-17T01:42:43.748Z,0.32
2023-02-17T01:45:33.401Z,0.70
2023-02-17T01:48:07.755Z,0.63
2023-02-17T01:50:41.397Z,0.63
2023-02-17T01:53:14.013Z,0.70
2023-02-17T01:55:46.181Z,0.40
2023-02-17T01:58:19.141Z,0.50
2023-02-17T02:00:49.379Z,0.47
2023-02-17T02:03:19.615Z,0.50
2023-02-17T02:05:50.760Z,0.73
2023-02-17T02:08:21.486Z,0.60
2023-02-17T02:10:49.823Z,0.43
2023-02-17T02:13:18.511Z,0.40
2023-02-17T02:15:58.366Z,0.50
2023-02-17T02:18:50.256Z,0.32
2023-02-17T02:21:53.375Z,0.40
2023-02-17T02:24:39.232Z,0.43
2023-02-17T02:27:42.562Z,0.93
2023-02-17T02:30:27.700Z,0.55
2023-02-17T02:33:09.542Z,0.30
2023-02-17T02:35:47.633Z,0.22
2023-02-17T02:38:24.062Z,0.30
2023-02-17T02:40:59.396Z,0.30
2023-02-17T02:43:29.218Z,0.22
2023-02-17T02:45:58.846Z,0.40
2023-02-17T02:48:31.151Z,0.20
2023-02-17T02:51:19.882Z,0.50
2023-02-17T02:54:18.049Z,0.30
2023-02-17T02:57:09.771Z,0.20
2023-02-17T02:59:50.243Z,0.30
2023-02-17T03:02:31.665Z,0.22
2023-02-17T03:05:09.587Z,0.20
2023-02-17T03:07:44.160Z,0.30
2023-02-17T03:10:12.987Z,0.20
2023-02-17T03:12:42.698Z,0.20
2023-02-17T03:15:17.545Z,0.30
2023-02-17T03:17:47.052Z,0.13
2023-02-17T03:20:17.853Z,0.22
2023-02-17T03:22:49.932Z,0.30
2023-02-17T03:25:18.528Z,0.13
2023-02-17T03:27:46.883Z,0.10
2023-02-17T03:30:15.782Z,0.20
2023-02-17T03:32:50.551Z,0.20
2023-02-17T03:35:20.824Z,0.20
2023-02-17T03:37:49.128Z,0.30
2023-02-17T03:40:18.786Z,0.13
2023-02-17T03:42:47.740Z,0.10
2023-02-17T03:45:17.598Z,0.17
2023-02-17T03:47:46.430Z,0.20
2023-02-17T03:50:14.886Z,0.20
2023-02-17T03:52:45.005Z,0.20
2023-02-17T03:55:14.716Z,0.20
2023-02-17T03:57:45.229Z,0.20
2023-02-17T04:00:21.913Z,0.30
2023-02-17T04:02:57.247Z,0.30
2023-02-17T04:05:26.414Z,0.30
2023-02-17T04:07:56.836Z,0.20
2023-02-17T04:10:28.174Z,0.20
2023-02-17T04:12:57.282Z,0.20
2023-02-17T04:15:25.937Z,0.20
2023-02-17T04:17:54.525Z,0.20
2023-02-17T04:20:23.311Z,0.20
2023-02-17T04:22:52.785Z,0.20
2023-02-17T04:25:23.859Z,0.20
2023-02-17T04:27:52.798Z,0.20
2023-02-17T04:30:23.798Z,0.20
2023-02-17T04:32:52.391Z,0.20
2023-02-17T04:35:20.757Z,0.20
2023-02-17T04:37:49.286Z,0.32
2023-02-17T04:40:19.417Z,0.20
2023-02-17T04:42:51.697Z,0.40
2023-02-17T04:45:22.584Z,0.17
2023-02-17T04:47:57.362Z,0.20
2023-02-17T04:50:25.987Z,0.40
2023-02-17T04:52:54.699Z,0.20
2023-02-17T04:55:25.305Z,0.20
2023-02-17T04:57:56.369Z,0.10
2023-02-17T05:00:25.403Z,0.20
2023-02-17T05:02:53.970Z,0.10
2023-02-17T05:05:22.364Z,0.10
2023-02-17T05:07:52.004Z,0.20
2023-02-17T05:10:23.711Z,0.10
2023-02-17T05:12:52.610Z,0.20
2023-02-17T05:15:23.789Z,0.20
2023-02-17T05:17:52.307Z,0.20
2023-02-17T05:20:21.410Z,0.10
2023-02-17T05:22:52.215Z,0.10
2023-02-17T05:25:20.701Z,0.20
2023-02-17T05:27:50.225Z,0.10
2023-02-17T05:30:26.365Z,0.10
2023-02-17T05:32:56.777Z,0.40
2023-02-17T05:35:25.803Z,0.20
2023-02-17T05:37:57.140Z,0.20
2023-02-17T05:40:25.739Z,0.20
2023-02-17T05:42:54.315Z,0.10
2023-02-17T05:45:25.332Z,0.13
2023-02-17T05:47:54.357Z,0.10
2023-02-17T05:50:23.832Z,0.17
2023-02-17T05:52:52.405Z,0.13
2023-02-17T05:55:22.492Z,0.20
2023-02-17T05:57:52.485Z,0.20
2023-02-17T06:00:21.215Z,0.20
2023-02-17T06:02:51.703Z,0.10
2023-02-17T06:05:20.352Z,0.15
2023-02-17T06:07:49.801Z,0.20
2023-02-17T06:10:18.509Z,0.38
2023-02-17T06:12:46.911Z,0.20
2023-02-17T06:15:15.893Z,0.40
2023-02-17T06:17:45.592Z,0.20
2023-02-17T06:20:17.222Z,0.20
2023-02-17T06:22:45.590Z,0.32
2023-02-17T06:25:15.333Z,0.30
2023-02-17T06:27:44.570Z,0.30
2023-02-17T06:30:15.077Z,0.30
2023-02-17T06:32:44.986Z,0.30
2023-02-17T06:35:13.580Z,0.20
2023-02-17T06:37:43.958Z,0.38
2023-02-17T06:40:14.063Z,0.40
2023-02-17T06:42:42.549Z,0.40
2023-02-17T06:45:11.535Z,0.30
2023-02-17T06:47:40.054Z,0.40
2023-02-17T06:50:10.736Z,0.60
2023-02-17T06:52:46.552Z,0.40
2023-02-17T06:55:19.062Z,0.52
2023-02-17T06:57:48.422Z,0.40
2023-02-17T07:00:18.384Z,0.30
2023-02-17T07:02:47.797Z,0.28
2023-02-17T07:05:16.772Z,0.35
2023-02-17T07:08:06.815Z,0.20
2023-02-17T07:10:39.030Z,0.43
2023-02-17T07:13:07.761Z,0.50
2023-02-17T07:15:36.821Z,0.43
2023-02-17T07:18:05.509Z,0.50
2023-02-17T07:20:34.112Z,0.52
2023-02-17T07:23:04.629Z,0.60
2023-02-17T07:25:33.507Z,0.88
2023-02-17T07:28:02.070Z,0.93
2023-02-17T07:30:30.782Z,0.90
2023-02-17T07:32:59.494Z,0.80
2023-02-17T07:35:28.002Z,1.10
2023-02-17T07:37:59.578Z,1.20
2023-02-17T07:40:30.356Z,1.05
2023-02-17T07:43:00.881Z,1.60
2023-02-17T07:45:29.924Z,1.40
2023-02-17T07:47:58.574Z,1.40
2023-02-17T07:50:27.615Z,2.42
2023-02-17T07:52:56.966Z,1.42
2023-02-17T07:55:26.047Z,2.13
2023-02-17T07:57:56.216Z,2.30
2023-02-17T08:00:24.878Z,3.25
2023-02-17T08:02:53.623Z,2.15
2023-02-17T08:05:24.498Z,2.88
2023-02-17T08:08:13.352Z,3.25
2023-02-17T08:11:00.542Z,2.38
2023-02-17T08:13:30.816Z,3.15
2023-02-17T08:16:00.816Z,3.30
2023-02-17T08:18:34.390Z,3.70
2023-02-17T08:21:05.276Z,3.40
2023-02-17T08:23:41.267Z,3.30
2023-02-17T08:26:09.873Z,3.17
2023-02-17T08:28:39.882Z,2.88
2023-02-17T08:31:16.289Z,3.90
2023-02-17T08:33:45.487Z,3.72
2023-02-17T08:36:15.802Z,4.05
2023-02-17T08:38:48.935Z,4.00
2023-02-17T08:41:20.190Z,4.35
2023-02-17T08:43:55.039Z,4.43
2023-02-17T08:46:24.664Z,3.85
2023-02-17T08:48:53.350Z,3.65
2023-02-17T08:51:26.418Z,4.88
2023-02-17T08:53:57.086Z,4.47
2023-02-17T08:56:28.108Z,3.97
2023-02-17T08:58:58.466Z,4.72
2023-02-17T09:01:28.196Z,4.35
2023-02-17T09:03:59.058Z,4.88
2023-02-17T09:06:34.882Z,4.97
2023-02-17T09:09:04.102Z,5.20
2023-02-17T09:11:32.594Z,4.63
2023-02-17T09:14:02.980Z,5.18
2023-02-17T09:16:31.579Z,4.90
2023-02-17T09:19:00.557Z,5.20
2023-02-17T09:21:29.142Z,4.95
2023-02-17T09:23:58.780Z,5.22
2023-02-17T09:26:27.506Z,5.07
2023-02-17T09:28:58.179Z,5.03
2023-02-17T09:31:29.416Z,6.25
2023-02-17T09:33:58.384Z,5.43
2023-02-17T09:36:30.204Z,6.40
2023-02-17T09:38:59.217Z,5.68
2023-02-17T09:41:33.698Z,6.18
2023-02-17T09:44:03.205Z,5.65
2023-02-17T09:46:38.648Z,5.72
2023-02-17T09:49:13.933Z,6.60
2023-02-17T09:51:47.787Z,5.63
2023-02-17T09:54:21.457Z,5.00
2023-02-17T09:56:55.289Z,5.95
2023-02-17T09:59:29.636Z,6.30
2023-02-17T10:02:02.055Z,5.93
2023-02-17T10:04:37.401Z,5.43
2023-02-17T10:07:13.632Z,5.90
2023-02-17T10:09:50.474Z,5.22
2023-02-17T10:12:25.327Z,5.40
2023-02-17T10:14:57.944Z,5.97
2023-02-17T10:17:38.098Z,5.90
2023-02-17T10:20:10.889Z,5.35
2023-02-17T10:22:45.499Z,5.43
2023-02-17T10:25:17.936Z,6.35
2023-02-17T10:27:53.891Z,5.32
2023-02-17T10:30:32.572Z,5.78
2023-02-17T10:33:13.845Z,5.13
2023-02-17T10:35:53.470Z,5.30
2023-02-17T10:38:39.518Z,5.90
2023-02-17T10:41:14.175Z,5.47
2023-02-17T10:43:45.138Z,5.18
2023-02-17T10:46:17.533Z,5.10
2023-02-17T10:48:50.931Z,5.22
2023-02-17T10:51:24.108Z,5.07
2023-02-17T10:53:56.863Z,5.70
2023-02-17T10:56:30.543Z,5.55
2023-02-17T10:59:07.059Z,4.97
2023-02-17T11:01:36.129Z,6.50
2023-02-17T11:04:08.263Z,6.00
2023-02-17T11:06:44.643Z,5.68
2023-02-17T11:09:22.193Z,5.60
2023-02-17T11:11:59.130Z,5.88
2023-02-17T11:14:29.853Z,5.22
2023-02-17T11:17:00.997Z,5.50
2023-02-17T11:19:34.525Z,6.78
2023-02-17T11:22:04.856Z,5.70
2023-02-17T11:24:36.132Z,6.22
2023-02-17T11:27:12.640Z,6.38
2023-02-17T11:29:41.764Z,5.47
2023-02-17T11:32:14.066Z,5.93
2023-02-17T11:34:45.829Z,6.20
2023-02-17T11:37:24.799Z,6.55
2023-02-17T11:39:55.408Z,7.00
2023-02-17T11:42:25.436Z,6.72
2023-02-17T11:44:57.718Z,4.47
2023-02-17T11:47:35.398Z,3.92
2023-02-17T11:50:38.944Z,3.28
2023-02-17T11:53:28.754Z,3.40
2023-02-17T11:56:12.628Z,2.95
2023-02-17T11:59:04.430Z,2.63
2023-02-17T12:01:49.588Z,3.35
2023-02-17T12:04:31.397Z,2.58
2023-02-17T12:07:31.013Z,2.55
2023-02-17T12:10:08.572Z,2.22
2023-02-17T12:13:02.579Z,2.33
2023-02-17T12:15:42.905Z,2.45
2023-02-17T12:18:26.864Z,2.35
2023-02-17T12:21:06.048Z,2.65
2023-02-17T12:24:07.540Z,2.75
2023-02-17T12:26:41.773Z,2.10
2023-02-17T12:29:30.820Z,2.40
2023-02-17T12:32:20.719Z,2.92
2023-02-17T12:34:55.421Z,2.95
2023-02-17T12:37:27.471Z,2.65
2023-02-17T12:40:04.827Z,2.95
2023-02-17T12:42:38.704Z,2.50
2023-02-17T12:45:18.453Z,2.55
2023-02-17T12:47:55.869Z,2.67
2023-02-17T12:50:31.817Z,3.00
2023-02-17T12:53:04.977Z,3.30
2023-02-17T12:55:47.095Z,3.22
2023-02-17T12:58:19.792Z,2.92
2023-02-17T13:00:52.497Z,4.53
2023-02-17T13:03:21.342Z,4.47
2023-02-17T13:06:00.453Z,4.60
2023-02-17T13:08:39.703Z,4.43
2023-02-17T13:11:13.573Z,4.15
2023-02-17T13:13:42.452Z,4.13
2023-02-17T13:16:13.279Z,5.00
2023-02-17T13:18:44.514Z,4.65
2023-02-17T13:21:32.708Z,4.82
2023-02-17T13:24:03.629Z,5.32
2023-02-17T13:26:36.102Z,5.35
2023-02-17T13:29:22.538Z,5.45
2023-02-17T13:31:55.122Z,5.93
2023-02-17T13:34:29.849Z,6.22
2023-02-17T13:37:00.769Z,6.05
2023-02-17T13:39:39.762Z,6.07
2023-02-17T13:42:38.816Z,6.00
2023-02-17T13:45:19.350Z,5.40
2023-02-17T13:47:50.826Z,4.53
2023-02-17T13:50:32.431Z,4.95
2023-02-17T13:53:02.237Z,4.20
2023-02-17T13:55:31.883Z,4.40
2023-02-17T13:58:02.146Z,4.22
2023-02-17T14:00:32.576Z,4.00
2023-02-17T14:03:17.726Z,4.15
2023-02-17T14:05:48.592Z,4.68
2023-02-17T14:08:24.497Z,4.30
2023-02-17T14:10:53.921Z,4.45
2023-02-17T14:13:26.012Z,4.90
2023-02-17T14:15:57.222Z,4.40
2023-02-17T14:18:36.566Z,4.10
2023-02-17T14:21:09.576Z,5.28
2023-02-17T14:23:49.362Z,4.78
2023-02-17T14:26:29.863Z,4.78
2023-02-17T14:29:01.051Z,3.70
2023-02-17T14:31:30.462Z,4.65
2023-02-17T14:34:02.176Z,4.07
2023-02-17T14:36:35.240Z,4.70
2023-02-17T14:39:06.421Z,4.20
2023-02-17T14:41:36.651Z,4.80
2023-02-17T14:44:06.969Z,4.85
2023-02-17T14:46:36.485Z,4.30
2023-02-17T14:49:05.289Z,4.35
2023-02-17T14:51:36.496Z,5.28
2023-02-17T14:54:12.258Z,4.45
2023-02-17T14:56:46.180Z,4.55
2023-02-17T14:59:16.267Z,4.05
2023-02-17T15:01:44.891Z,3.92
2023-02-17T15:04:13.628Z,4.88
2023-02-17T15:06:44.336Z,4.78
2023-02-17T15:09:19.239Z,3.92
2023-02-17T15:11:49.266Z,4.88
2023-02-17T15:14:22.745Z,4.80
2023-02-17T15:16:51.734Z,4.75
2023-02-17T15:19:20.810Z,4.75
2023-02-17T15:21:51.357Z,4.88
2023-02-17T15:24:23.610Z,4.90
2023-02-17T15:26:52.426Z,4.53
2023-02-17T15:29:24.062Z,4.80
2023-02-17T15:31:54.565Z,4.60
2023-02-17T15:34:26.852Z,4.95
2023-02-17T15:36:55.179Z,4.47
2023-02-17T15:39:23.888Z,3.63
2023-02-17T15:41:55.352Z,4.55
2023-02-17T15:44:28.107Z,5.28
2023-02-17T15:46:57.583Z,4.57
2023-02-17T15:49:26.577Z,5.07
2023-02-17T15:51:55.766Z,5.55
2023-02-17T15:54:24.324Z,4.35
2023-02-17T15:56:55.113Z,5.30
2023-02-17T15:59:28.214Z,5.45
2023-02-17T16:01:57.238Z,5.80
2023-02-17T16:04:26.900Z,4.72
2023-02-17T16:06:55.480Z,5.32
2023-02-17T16:09:24.037Z,4.75
2023-02-17T16:11:57.589Z,4.53
2023-02-17T16:14:35.261Z,4.53
2023-02-17T16:17:04.713Z,4.97
2023-02-17T16:19:34.359Z,4.57
2023-02-17T16:22:03.051Z,4.95
2023-02-17T16:24:31.729Z,4.35
2023-02-17T16:27:00.924Z,4.40
2023-02-17T16:29:32.055Z,4.38
2023-02-17T16:32:00.483Z,4.60
2023-02-17T16:34:32.714Z,4.78
2023-02-17T16:37:04.523Z,4.53
2023-02-17T16:39:34.282Z,6.50
2023-02-17T16:42:02.984Z,4.57
2023-02-17T16:44:33.254Z,4.57
2023-02-17T16:47:03.080Z,5.63
2023-02-17T16:49:36.411Z,4.85
2023-02-17T16:52:06.961Z,4.55
2023-02-17T16:54:35.938Z,3.75
2023-02-17T16:57:05.038Z,4.50
2023-02-17T16:59:36.208Z,4.55
2023-02-17T17:02:04.911Z,4.45
2023-02-17T17:04:33.500Z,4.22
2023-02-17T17:07:02.088Z,4.00
2023-02-17T17:09:31.049Z,7.32
2023-02-17T17:12:02.151Z,4.40
2023-02-17T17:14:30.718Z,4.47
2023-02-17T17:17:03.866Z,3.60
2023-02-17T17:19:32.519Z,3.90
2023-02-17T17:22:01.227Z,4.22
2023-02-17T17:24:31.040Z,4.95
2023-02-17T17:27:00.830Z,4.43
2023-02-17T17:29:29.506Z,4.65
2023-02-17T17:31:58.288Z,4.07
2023-02-17T17:34:29.576Z,5.00
2023-02-17T17:36:58.384Z,3.90
2023-02-17T17:39:27.008Z,3.67
2023-02-17T17:41:57.624Z,3.65
2023-02-17T17:44:28.617Z,4.38
2023-02-17T17:46:57.191Z,3.42
2023-02-17T17:49:25.888Z,3.55
2023-02-17T17:51:56.067Z,4.20
2023-02-17T17:54:26.748Z,3.78
2023-02-17T17:56:55.461Z,3.67
2023-02-17T17:59:24.170Z,4.30
2023-02-17T18:01:53.071Z,4.40
2023-02-17T18:04:22.059Z,4.15
2023-02-17T18:06:53.362Z,4.05
2023-02-17T18:09:31.827Z,3.47
2023-02-17T18:12:04.504Z,4.03
2023-02-17T18:14:37.429Z,4.10
2023-02-17T18:17:08.342Z,4.25
2023-02-17T18:19:37.431Z,4.15
2023-02-17T18:22:06.594Z,3.15
2023-02-17T18:24:38.103Z,3.40
2023-02-17T18:27:06.713Z,2.83
2023-02-17T18:29:35.421Z,2.75
2023-02-17T18:32:04.207Z,3.38
2023-02-17T18:34:33.091Z,3.72
2023-02-17T18:37:01.729Z,4.00
2023-02-17T18:39:30.361Z,3.60
2023-02-17T18:42:00.493Z,4.25
2023-02-17T18:44:29.458Z,4.47
2023-02-17T18:46:58.109Z,4.32
2023-02-17T18:49:26.674Z,4.18
2023-02-17T18:51:55.817Z,4.10
2023-02-17T18:54:24.482Z,3.90
2023-02-17T18:56:53.061Z,2.30
2023-02-17T18:59:23.401Z,2.10
2023-02-17T19:01:55.270Z,2.25
2023-02-17T19:04:24.370Z,2.60
2023-02-17T19:06:53.021Z,2.35
2023-02-17T19:09:21.674Z,2.00
2023-02-17T19:11:50.312Z,2.20
2023-02-17T19:14:18.633Z,2.38
2023-02-17T19:16:48.725Z,1.80
2023-02-17T19:19:17.360Z,2.20
2023-02-17T19:21:45.900Z,2.38
2023-02-17T19:24:16.635Z,2.08
2023-02-17T19:26:47.054Z,2.28
2023-02-17T19:29:15.556Z,2.20
2023-02-17T19:31:44.040Z,2.22
2023-02-17T19:34:15.762Z,2.20
2023-02-17T19:36:44.286Z,2.55
2023-02-17T19:39:12.902Z,2.17
2023-02-17T19:41:41.563Z,2.58
2023-02-17T19:44:11.478Z,2.50
2023-02-17T19:46:40.552Z,2.13
2023-02-17T19:49:09.384Z,2.58
2023-02-17T19:51:39.259Z,2.25
2023-02-17T19:54:07.919Z,3.25
2023-02-17T19:56:36.638Z,2.80
2023-02-17T19:59:05.304Z,2.90
2023-02-17T20:01:35.979Z,2.60
2023-02-17T20:04:06.775Z,2.70
2023-02-17T20:06:40.397Z,3.00
2023-02-17T20:09:12.757Z,2.42
2023-02-17T20:11:41.446Z,2.47
2023-02-17T20:14:12.274Z,2.28
2023-02-17T20:16:41.477Z,3.08
2023-02-17T20:19:10.126Z,2.42
2023-02-17T20:21:40.153Z,2.72
2023-02-17T20:24:11.697Z,2.78
2023-02-17T20:26:42.911Z,2.75
2023-02-17T20:29:12.706Z,3.35
2023-02-17T20:31:43.094Z,3.28
2023-02-17T20:34:25.648Z,3.22
2023-02-17T20:36:54.273Z,2.60
2023-02-17T20:39:28.669Z,4.05
2023-02-17T20:41:58.226Z,2.95
2023-02-17T20:44:28.164Z,3.53
2023-02-17T20:46:58.296Z,3.47
2023-02-17T20:49:29.390Z,3.35
2023-02-17T20:51:59.410Z,3.97
2023-02-17T20:54:30.876Z,3.22
2023-02-17T20:57:01.518Z,2.60
2023-02-17T20:59:30.416Z,2.60
2023-02-17T21:02:00.278Z,2.30
2023-02-17T21:04:30.907Z,2.60
2023-02-17T21:07:01.671Z,3.22
2023-02-17T21:09:31.938Z,2.47
2023-02-17T21:12:00.539Z,2.78
2023-02-17T21:14:29.414Z,3.17
2023-02-17T21:16:58.131Z,2.80
2023-02-17T21:19:28.490Z,3.58
2023-02-17T21:21:57.043Z,3.03
2023-02-17T21:24:25.858Z,3.22
2023-02-17T21:26:56.057Z,3.60
2023-02-17T21:29:24.738Z,2.53
2023-02-17T21:31:54.794Z,3.22
2023-02-17T21:34:24.471Z,2.67
2023-02-17T21:36:53.174Z,2.28
2023-02-17T21:39:22.052Z,2.92
2023-02-17T21:41:54.520Z,2.70
2023-02-17T21:44:42.878Z,2.53
2023-02-17T21:47:12.083Z,2.10
2023-02-17T21:49:40.726Z,2.33
2023-02-17T21:52:09.235Z,2.50
2023-02-17T21:54:37.822Z,1.92
2023-02-17T21:57:07.637Z,2.03
2023-02-17T21:59:37.629Z,2.40
2023-02-17T22:02:06.097Z,1.90
2023-02-17T22:04:34.491Z,2.15
2023-02-17T22:07:02.806Z,2.05
2023-02-17T22:09:31.493Z,2.47
2023-02-17T22:11:59.845Z,2.17
2023-02-17T22:14:28.721Z,1.98
2023-02-17T22:16:58.957Z,2.67
2023-02-17T22:19:31.077Z,2.25
2023-02-17T22:22:00.420Z,2.00
2023-02-17T22:24:29.318Z,2.38
2023-02-17T22:26:57.785Z,1.85
2023-02-17T22:29:26.386Z,2.53
2023-02-17T22:31:56.368Z,2.15
2023-02-17T22:34:32.066Z,1.85
2023-02-17T22:37:00.507Z,2.30
2023-02-17T22:39:30.069Z,2.17
2023-02-17T22:41:58.654Z,1.95
2023-02-17T22:44:27.305Z,2.00
2023-02-17T22:46:55.936Z,2.05
2023-02-17T22:49:26.024Z,1.90
2023-02-17T22:51:54.689Z,2.33
2023-02-17T22:54:24.568Z,3.85
2023-02-17T22:56:52.959Z,2.38
2023-02-17T22:59:21.423Z,2.40
2023-02-17T23:01:50.125Z,1.77
2023-02-17T23:04:18.904Z,2.47
2023-02-17T23:06:48.765Z,2.60
2023-02-17T23:09:19.485Z,2.00
2023-02-17T23:11:55.125Z,1.80
2023-02-17T23:14:26.897Z,2.20
2023-02-17T23:16:57.998Z,2.38
2023-02-17T23:19:29.542Z,2.05
2023-02-17T23:22:03.303Z,1.75
2023-02-17T23:24:32.013Z,2.13
2023-02-17T23:27:03.910Z,2.28
2023-02-17T23:29:34.248Z,2.25
2023-02-17T23:32:03.101Z,1.98
2023-02-17T23:34:31.893Z,1.70
2023-02-17T23:37:02.063Z,2.20
2023-02-17T23:39:30.577Z,2.17
2023-02-17T23:41:59.157Z,2.00
2023-02-17T23:44:27.688Z,2.35
2023-02-17T23:46:56.217Z,1.95
2023-02-17T23:49:24.683Z,2.20
2023-02-17T23:51:53.740Z,2.35
2023-02-17T23:54:25.432Z,2.40
2023-02-17T23:56:54.250Z,1.83
2023-02-17T23:59:22.797Z,2.20
